Time;durP1;ratioP1;P1;durP2;ratioP2;P2;SDS_P1;SDS_P2;PMS_P1;PMS_P2;Temp;Humidity;BMP_temperature;BMP_pressure;BME280_temperature;BME280_humidity;BME280_pressure;Samples;Min_cycle;Max_cycle;Signal;HPM_P1;HPM_P2
2021/05/21 00:02:24;;;;;;;10.30;7.25;;;;;;;;;;10364394;28;20044;-67
2021/05/21 00:07:22;;;;;;;8.52;7.10;;;;;;;;;;10363047;28;20075;-67
2021/05/21 00:12:20;;;;;;;8.73;7.93;;;;;;;;;;10362687;28;20084;-67
2021/05/21 00:17:18;;;;;;;11.50;6.90;;;;;;;;;;10363455;28;20055;-67
2021/05/21 00:22:16;;;;;;;8.40;7.68;;;;;;;;;;10363064;28;20040;-67
2021/05/21 00:27:14;;;;;;;8.55;7.75;;;;;;;;;;10362154;28;20072;-67
2021/05/21 00:32:12;;;;;;;10.70;9.18;;;;;;;;;;10362984;28;20523;-67
2021/05/21 00:37:10;;;;;;;9.75;8.75;;;;;;;;;;10362519;28;20048;-67
2021/05/21 00:42:09;;;;;;;9.48;8.55;;;;;;;;;;10362130;28;20439;-67
2021/05/21 00:47:06;;;;;;;10.10;9.18;;;;;;;;;;10359661;28;20491;-67
2021/05/21 00:52:05;;;;;;;10.55;9.65;;;;;;;;;;10361237;28;20087;-67
2021/05/21 00:57:06;;;;;;;11.18;9.48;;;;;;;;;;10357252;28;20197;-67
2021/05/21 01:02:06;;;;;;;10.02;9.13;;;;;;;;;;10361582;28;20082;-66
2021/05/21 01:07:04;;;;;;;11.30;9.85;;;;;;;;;;10362125;28;20048;-67
2021/05/21 01:12:03;;;;;;;10.88;9.85;;;;;;;;;;10361422;28;20603;-67
2021/05/21 01:17:01;;;;;;;11.20;10.05;;;;;;;;;;10361674;28;20059;-67
2021/05/21 01:21:59;;;;;;;9.98;9.18;;;;;;;;;;10361777;28;20047;-67
2021/05/21 01:26:59;;;;;;;10.45;9.32;;;;;;;;;;10361062;28;20052;-67
2021/05/21 01:31:57;;;;;;;8.90;8.07;;;;;;;;;;10361101;28;20082;-67
2021/05/21 01:36:55;;;;;;;8.95;8.07;;;;;;;;;;10360972;28;20047;-67
2021/05/21 01:41:54;;;;;;;9.13;8.32;;;;;;;;;;10359801;28;20088;-67
2021/05/21 01:46:52;;;;;;;10.52;9.52;;;;;;;;;;10360453;28;20442;-67
2021/05/21 01:51:53;;;;;;;10.27;9.38;;;;;;;;;;10359804;28;20090;-67
2021/05/21 01:56:52;;;;;;;11.57;9.95;;;;;;;;;;10358768;28;20411;-67
2021/05/21 02:01:51;;;;;;;11.27;10.20;;;;;;;;;;10359565;28;20051;-67
2021/05/21 02:06:50;;;;;;;11.63;10.05;;;;;;;;;;10359080;28;20485;-67
2021/05/21 02:11:47;;;;;;;11.30;10.20;;;;;;;;;;10358931;28;20084;-67
2021/05/21 02:16:45;;;;;;;12.02;10.70;;;;;;;;;;10357342;28;20076;-67
2021/05/21 02:21:46;;;;;;;12.10;10.85;;;;;;;;;;10358612;28;20045;-66
2021/05/21 02:26:44;;;;;;;13.98;12.55;;;;;;;;;;10356737;28;20052;-66
2021/05/21 02:31:42;;;;;;;16.77;10.98;;;;;;;;;;10358052;28;20098;-66
2021/05/21 02:36:40;;;;;;;13.30;11.90;;;;;;;;;;10358316;28;20101;-66
2021/05/21 02:41:39;;;;;;;16.05;12.30;;;;;;;;;;10357684;28;20079;-66
2021/05/21 02:46:36;;;;;;;16.45;12.35;;;;;;;;;;10357937;28;20080;-66
2021/05/21 02:51:34;;;;;;;15.40;13.80;;;;;;;;;;10356873;28;20091;-66
2021/05/21 02:56:32;;;;;;;17.20;13.48;;;;;;;;;;10358054;28;20044;-66
2021/05/21 03:01:31;;;;;;;16.85;15.15;;;;;;;;;;10354392;28;20055;-66
2021/05/21 03:06:29;;;;;;;15.98;14.38;;;;;;;;;;10356287;28;20773;-67
2021/05/21 03:11:27;;;;;;;15.45;12.05;;;;;;;;;;10362382;28;20044;-66
2021/05/21 03:16:25;;;;;;;14.93;13.50;;;;;;;;;;10365016;28;20517;-66
2021/05/21 03:21:23;;;;;;;15.32;13.73;;;;;;;;;;10364058;28;20492;-66
2021/05/21 03:26:21;;;;;;;13.77;12.35;;;;;;;;;;10363258;28;20060;-66
2021/05/21 03:31:19;;;;;;;13.93;12.63;;;;;;;;;;10361666;28;20067;-66
2021/05/21 03:36:17;;;;;;;16.08;12.88;;;;;;;;;;10362278;28;20075;-66
2021/05/21 03:41:16;;;;;;;13.02;11.70;;;;;;;;;;10360803;28;20087;-66
2021/05/21 03:46:13;;;;;;;12.40;11.05;;;;;;;;;;10357567;28;20071;-66
2021/05/21 03:51:12;;;;;;;14.85;12.07;;;;;;;;;;10361060;28;20083;-66
2021/05/21 03:56:10;;;;;;;13.48;12.07;;;;;;;;;;10361595;28;20090;-66
2021/05/21 04:01:08;;;;;;;11.85;10.63;;;;;;;;;;10361260;28;20078;-67
2021/05/21 04:06:06;;;;;;;13.98;12.20;;;;;;;;;;10377422;28;20071;-66
2021/05/21 04:11:04;;;;;;;13.82;12.35;;;;;;;;;;10371076;28;20075;-67
2021/05/21 04:16:02;;;;;;;20.90;13.27;;;;;;;;;;10379039;28;20046;-67
2021/05/21 04:21:00;;;;;;;21.02;15.25;;;;;;;;;;10404016;28;20043;-67
2021/05/21 04:25:58;;;;;;;13.73;12.18;;;;;;;;;;10404511;28;20043;-67
2021/05/21 04:30:56;;;;;;;25.90;11.82;;;;;;;;;;10403398;28;20090;-67
2021/05/21 04:35:54;;;;;;;17.27;8.82;;;;;;;;;;10403767;28;20492;-67
2021/05/21 04:40:53;;;;;;;13.57;7.90;;;;;;;;;;10403179;28;20059;-67
2021/05/21 04:45:51;;;;;;;9.73;8.73;;;;;;;;;;10402750;28;20075;-67
2021/05/21 04:50:49;;;;;;;8.10;6.82;;;;;;;;;;10399286;28;20475;-68
2021/05/21 04:55:47;;;;;;;8.65;7.75;;;;;;;;;;10399630;28;20067;-67
2021/05/21 05:00:46;;;;;;;11.52;6.85;;;;;;;;;;10398994;28;20075;-67
2021/05/21 05:05:44;;;;;;;16.67;8.10;;;;;;;;;;10399555;28;20075;-67
2021/05/21 05:10:42;;;;;;;7.10;6.40;;;;;;;;;;10403520;28;20566;-67
2021/05/21 05:15:40;;;;;;;10.38;8.25;;;;;;;;;;10402960;28;20043;-67
2021/05/21 05:20:39;;;;;;;7.22;6.53;;;;;;;;;;10401912;28;20083;-67
2021/05/21 05:25:39;;;;;;;8.50;5.75;;;;;;;;;;10402548;28;20484;-67
2021/05/21 05:30:37;;;;;;;7.57;6.40;;;;;;;;;;10402207;28;20075;-67
2021/05/21 05:35:35;;;;;;;11.95;6.30;;;;;;;;;;10401271;28;20043;-67
2021/05/21 05:40:38;;;;;;;9.75;5.90;;;;;;;;;;10400619;28;20059;-67
2021/05/21 05:45:36;;;;;;;20.20;7.70;;;;;;;;;;10401339;28;20492;-67
2021/05/21 05:50:34;;;;;;;20.25;11.35;;;;;;;;;;10400960;28;20075;-67
2021/05/21 05:55:32;;;;;;;20.50;7.35;;;;;;;;;;10400765;28;20051;-66
2021/05/21 06:00:30;;;;;;;13.23;6.55;;;;;;;;;;10401247;28;20071;-66
2021/05/21 06:05:28;;;;;;;7.63;6.45;;;;;;;;;;10400870;28;20040;-67
2021/05/21 06:10:26;;;;;;;11.30;7.97;;;;;;;;;;10399910;28;20055;-67
2021/05/21 06:15:24;;;;;;;10.98;9.82;;;;;;;;;;10400617;28;20039;-66
2021/05/21 06:20:23;;;;;;;9.50;7.93;;;;;;;;;;10399783;28;20075;-68
2021/05/21 06:25:23;;;;;;;16.92;13.70;;;;;;;;;;10400270;28;20524;-67
2021/05/21 06:30:21;;;;;;;16.10;11.15;;;;;;;;;;10399661;28;20408;-67
2021/05/21 06:35:19;;;;;;;9.73;6.68;;;;;;;;;;10399874;28;20043;-67
2021/05/21 06:40:18;;;;;;;8.10;4.75;;;;;;;;;;10398861;28;20059;-66
2021/05/21 06:45:16;;;;;;;5.97;5.03;;;;;;;;;;10398049;28;20053;-67
2021/05/21 06:50:14;;;;;;;5.55;3.45;;;;;;;;;;10398455;28;20082;-67
2021/05/21 06:55:13;;;;;;;4.32;3.92;;;;;;;;;;10399175;28;20098;-66
2021/05/21 07:00:12;;;;;;;5.75;3.58;;;;;;;;;;10398667;28;20043;-67
2021/05/21 07:05:12;;;;;;;5.63;3.88;;;;;;;;;;10399135;28;20035;-67
2021/05/21 07:10:10;;;;;;;3.65;3.10;;;;;;;;;;10399099;28;20477;-67
2021/05/21 07:15:08;;;;;;;3.60;3.25;;;;;;;;;;10397391;28;20079;-67
2021/05/21 07:20:10;;;;;;;3.15;2.60;;;;;;;;;;10398673;28;20051;-66
2021/05/21 07:25:08;;;;;;;4.70;2.90;;;;;;;;;;10398720;28;20078;-66
2021/05/21 07:30:07;;;;;;;3.28;2.78;;;;;;;;;;10397112;28;20047;-67
2021/05/21 07:35:06;;;;;;;3.55;3.25;;;;;;;;;;10397735;28;20083;-67
2021/05/21 07:40:06;;;;;;;5.68;2.00;;;;;;;;;;10397868;28;20055;-66
2021/05/21 07:45:04;;;;;;;7.38;5.70;;;;;;;;;;10379426;28;20055;-67
2021/05/21 07:50:03;;;;;;;3.58;2.53;;;;;;;;;;10397545;28;20048;-67
2021/05/21 07:55:03;;;;;;;2.80;2.58;;;;;;;;;;10398137;28;20075;-67
2021/05/21 08:00:03;;;;;;;3.28;2.25;;;;;;;;;;10406211;28;20039;-67
2021/05/21 08:05:06;;;;;;;6.63;2.40;;;;;;;;;;10412290;28;20078;-67
2021/05/21 08:10:05;;;;;;;6.65;1.90;;;;;;;;;;10405608;28;20052;-68
2021/05/21 08:15:07;;;;;;;2.17;1.90;;;;;;;;;;10404464;28;20086;-67
2021/05/21 08:20:05;;;;;;;3.05;1.65;;;;;;;;;;10405308;28;20039;-67
2021/05/21 08:25:05;;;;;;;4.13;2.03;;;;;;;;;;10404983;28;20044;-67
2021/05/21 08:30:03;;;;;;;3.35;1.60;;;;;;;;;;10404884;28;20082;-67
2021/05/21 08:35:02;;;;;;;8.82;5.65;;;;;;;;;;10404525;28;20078;-67
2021/05/21 08:40:00;;;;;;;5.32;3.35;;;;;;;;;;10404145;28;20051;-67
2021/05/21 08:44:58;;;;;;;7.32;3.45;;;;;;;;;;10403219;28;20055;-66
2021/05/21 08:50:01;;;;;;;7.63;4.25;;;;;;;;;;10403383;28;20051;-67
2021/05/21 08:55:00;;;;;;;3.45;2.80;;;;;;;;;;10403927;28;20075;-67
2021/05/21 08:59:58;;;;;;;7.50;4.03;;;;;;;;;;10402512;28;20522;-67
2021/05/21 09:04:57;;;;;;;3.00;2.63;;;;;;;;;;10402692;28;20075;-67
2021/05/21 09:09:55;;;;;;;4.70;3.28;;;;;;;;;;10402719;28;20531;-67
2021/05/21 09:15:20;;;;;;;5.07;2.90;;;;;;;;;;10402264;28;20083;-66
2021/05/21 09:20:23;;;;;;;4.30;2.80;;;;;;;;;;10366924;28;20051;-66
2021/05/21 09:25:34;;;;;;;7.20;2.38;;;;;;;;;;10402895;28;20050;-67
2021/05/21 09:30:32;;;;;;;2.20;2.00;;;;;;;;;;10402462;28;20047;-66
2021/05/21 09:35:31;;;;;;;5.57;2.83;;;;;;;;;;10401636;28;20496;-66
2021/05/21 09:40:29;;;;;;;5.72;1.65;;;;;;;;;;10401809;28;20067;-67
2021/05/21 09:45:31;;;;;;;3.85;2.17;;;;;;;;;;10401074;28;20043;-66
2021/05/21 09:50:34;;;;;;;5.78;4.80;;;;;;;;;;10400918;28;20056;-66
2021/05/21 09:55:36;;;;;;;7.22;2.70;;;;;;;;;;10401131;28;20086;-66
2021/05/21 10:00:34;;;;;;;3.10;2.55;;;;;;;;;;10400482;28;20427;-67
2021/05/21 10:05:33;;;;;;;2.50;1.95;;;;;;;;;;10401074;28;20052;-67
2021/05/21 10:10:31;;;;;;;2.92;1.98;;;;;;;;;;10401651;28;20079;-67
2021/05/21 10:15:29;;;;;;;3.50;3.03;;;;;;;;;;10400764;28;20470;-66
2021/05/21 10:20:28;;;;;;;3.17;2.42;;;;;;;;;;10399853;28;20055;-67
2021/05/21 10:25:28;;;;;;;4.85;1.63;;;;;;;;;;10401289;28;20059;-66
2021/05/21 10:30:27;;;;;;;7.65;3.15;;;;;;;;;;10400257;28;20416;-68
2021/05/21 10:35:25;;;;;;;3.60;2.92;;;;;;;;;;10400054;28;20089;-67
2021/05/21 10:40:44;;;;;;;4.40;2.88;;;;;;;;;;10405356;28;20079;-67
2021/05/21 10:46:02;;;;;;;44.17;35.25;;;;;;;;;;10404196;28;20051;-67
2021/05/21 10:51:10;;;;;;;6.90;4.18;;;;;;;;;;10380651;28;20040;-66
2021/05/21 10:56:09;;;;;;;24.42;20.83;;;;;;;;;;10399056;28;20511;-67
2021/05/21 11:01:12;;;;;;;7.63;3.72;;;;;;;;;;10398637;28;20459;-67
2021/05/21 11:06:19;;;;;;;4.00;3.53;;;;;;;;;;10398372;28;20059;-67
2021/05/21 11:11:17;;;;;;;4.82;3.55;;;;;;;;;;10398494;28;20492;-67
2021/05/21 11:16:16;;;;;;;3.03;2.20;;;;;;;;;;10398105;28;20090;-67
2021/05/21 11:21:19;;;;;;;2.97;2.38;;;;;;;;;;10397702;28;20044;-67
2021/05/21 11:26:27;;;;;;;5.47;3.75;;;;;;;;;;10399015;28;20043;-67
2021/05/21 11:31:27;;;;;;;4.30;2.42;;;;;;;;;;10402762;28;20051;-67
2021/05/21 11:36:25;;;;;;;4.95;2.78;;;;;;;;;;10406344;28;20071;-67
2021/05/21 11:41:28;;;;;;;6.05;5.43;;;;;;;;;;10406163;28;20078;-67
2021/05/21 11:46:27;;;;;;;3.38;3.08;;;;;;;;;;10406181;28;20523;-67
2021/05/21 11:51:26;;;;;;;7.07;5.45;;;;;;;;;;10406870;28;20071;-66
2021/05/21 11:56:28;;;;;;;8.55;3.03;;;;;;;;;;10405434;28;20082;-66
2021/05/21 12:01:26;;;;;;;6.20;2.45;;;;;;;;;;10405444;28;20085;-67
2021/05/21 12:06:28;;;;;;;5.53;2.60;;;;;;;;;;10406257;28;20077;-66
2021/05/21 12:11:26;;;;;;;2.65;2.08;;;;;;;;;;10406160;28;20050;-67
2021/05/21 12:16:24;;;;;;;2.08;1.80;;;;;;;;;;10404212;28;20047;-67
2021/05/21 12:21:24;;;;;;;5.57;2.95;;;;;;;;;;10405641;28;20050;-67
2021/05/21 12:26:23;;;;;;;2.25;2.05;;;;;;;;;;10404973;28;20097;-67
2021/05/21 12:31:24;;;;;;;3.33;2.20;;;;;;;;;;10405024;28;20047;-67
2021/05/21 12:36:24;;;;;;;4.18;1.60;;;;;;;;;;10403962;28;20083;-67
2021/05/21 12:41:26;;;;;;;2.70;1.67;;;;;;;;;;10403635;28;20066;-67
2021/05/21 12:46:24;;;;;;;3.15;1.75;;;;;;;;;;10404246;28;20047;-67
2021/05/21 12:51:23;;;;;;;10.75;3.25;;;;;;;;;;10403157;28;20051;-67
2021/05/21 12:56:28;;;;;;;10.68;5.18;;;;;;;;;;10404241;28;20079;-66
2021/05/21 13:01:26;;;;;;;9.23;4.97;;;;;;;;;;10404058;28;20514;-68
2021/05/21 13:06:25;;;;;;;7.20;3.83;;;;;;;;;;10402868;28;20054;-67
2021/05/21 13:11:23;;;;;;;11.65;4.13;;;;;;;;;;10402671;28;20048;-67
2021/05/21 13:16:22;;;;;;;4.90;3.38;;;;;;;;;;10403327;28;20078;-67
2021/05/21 13:21:22;;;;;;;3.70;2.85;;;;;;;;;;10402232;28;20080;-67
2021/05/21 13:26:19;;;;;;;6.70;4.03;;;;;;;;;;10402251;28;20492;-67
2021/05/21 13:31:17;;;;;;;8.00;6.13;;;;;;;;;;10402584;28;20047;-68
2021/05/21 13:36:16;;;;;;;9.88;6.10;;;;;;;;;;10402459;28;20424;-68
2021/05/21 13:41:14;;;;;;;5.93;3.63;;;;;;;;;;10401850;28;20051;-68
2021/05/21 13:46:12;;;;;;;10.93;5.05;;;;;;;;;;10401281;28;20086;-68
2021/05/21 13:51:10;;;;;;;9.25;4.30;;;;;;;;;;10400731;28;20067;-67
2021/05/21 13:56:08;;;;;;;7.57;4.50;;;;;;;;;;10396334;28;20075;-67
2021/05/21 14:01:06;;;;;;;5.85;3.65;;;;;;;;;;10401055;28;20048;-69
2021/05/21 14:06:05;;;;;;;7.72;3.42;;;;;;;;;;10400592;28;20043;-67
2021/05/21 14:11:05;;;;;;;5.40;3.60;;;;;;;;;;10400173;28;20063;-67
2021/05/21 14:16:04;;;;;;;8.98;5.75;;;;;;;;;;10400018;28;20079;-67
2021/05/21 14:21:02;;;;;;;6.28;3.10;;;;;;;;;;10399192;28;20428;-67
2021/05/21 14:26:01;;;;;;;3.40;2.75;;;;;;;;;;10399892;28;20050;-67
2021/05/21 14:31:00;;;;;;;3.60;3.13;;;;;;;;;;10400286;28;20067;-67
2021/05/21 14:35:59;;;;;;;5.88;3.38;;;;;;;;;;10399665;28;20503;-67
2021/05/21 14:40:57;;;;;;;3.58;2.65;;;;;;;;;;10399636;28;20056;-67
2021/05/21 14:45:56;;;;;;;12.50;6.20;;;;;;;;;;10399208;28;20047;-67
2021/05/21 14:50:53;;;;;;;7.88;7.07;;;;;;;;;;10399571;28;20404;-67
2021/05/21 14:55:52;;;;;;;4.00;3.28;;;;;;;;;;10382359;28;20082;-65
2021/05/21 15:00:50;;;;;;;3.17;2.83;;;;;;;;;;10352695;28;20479;-66
2021/05/21 15:05:49;;;;;;;4.90;2.20;;;;;;;;;;10352843;28;20508;-65
2021/05/21 15:10:49;;;;;;;6.88;4.10;;;;;;;;;;10339393;28;20460;-65
2021/05/21 15:15:54;;;;;;;8.27;3.88;;;;;;;;;;10347114;28;20079;-65
2021/05/21 15:26:10;;;;;;;15.45;8.05;;;;;;;;;;10342824;28;20090;-66
2021/05/21 15:31:10;;;;;;;13.80;7.93;;;;;;;;;;10352495;28;20083;-66
2021/05/21 15:36:08;;;;;;;7.70;6.10;;;;;;;;;;10334370;28;20547;-65
2021/05/21 15:41:10;;;;;;;16.60;8.57;;;;;;;;;;10355217;28;20083;-66
2021/05/21 15:46:15;;;;;;;9.05;3.65;;;;;;;;;;10355253;28;20080;-65
2021/05/21 15:51:16;;;;;;;;;;;;;;;;;;10357384;28;20149;-65
2021/05/21 16:01:32;;;;;;;5.95;3.63;;;;;;;;;;10356538;28;20057;-65
2021/05/21 16:06:30;;;;;;;12.60;7.40;;;;;;;;;;10337601;28;20416;-65
2021/05/21 16:11:29;;;;;;;6.05;5.45;;;;;;;;;;10356424;28;20500;-65
2021/05/21 16:16:30;;;;;;;10.88;5.63;;;;;;;;;;10356766;28;20083;-66
2021/05/21 16:21:29;;;;;;;7.95;5.35;;;;;;;;;;10360019;28;20539;-65
2021/05/21 16:26:27;;;;;;;10.82;5.32;;;;;;;;;;10363832;28;20048;-65
2021/05/21 16:31:29;;;;;;;9.75;4.57;;;;;;;;;;10362903;28;20519;-65
2021/05/21 16:36:27;;;;;;;7.15;4.90;;;;;;;;;;10362708;28;20078;-65
2021/05/21 16:41:26;;;;;;;8.70;4.68;;;;;;;;;;10356247;28;20079;-65
2021/05/21 16:46:24;;;;;;;6.78;3.65;;;;;;;;;;10353401;28;20079;-65
2021/05/21 16:51:23;;;;;;;6.25;3.15;;;;;;;;;;10350242;28;20068;-65
2021/05/21 16:56:20;;;;;;;5.60;2.55;;;;;;;;;;10356512;28;20083;-66
2021/05/21 17:01:19;;;;;;;8.48;2.60;;;;;;;;;;10362447;28;20044;-66
2021/05/21 17:06:17;;;;;;;5.22;2.10;;;;;;;;;;10360821;28;20048;-66
2021/05/21 17:11:15;;;;;;;10.25;2.20;;;;;;;;;;10361494;28;20516;-66
2021/05/21 17:16:18;;;;;;;2.67;1.42;;;;;;;;;;10361521;28;20082;-66
2021/05/21 17:27:03;;;;;;;3.20;2.17;;;;;;;;;;10359876;28;20076;-66
2021/05/21 17:42:45;;;;;;;10.30;6.50;;;;;;;;;;10360349;28;20424;-65
2021/05/21 17:47:46;;;;;;;7.90;4.40;;;;;;;;;;10359925;28;20044;-64
2021/05/21 17:53:01;;;;;;;6.18;2.80;;;;;;;;;;10359447;28;20503;-66
2021/05/21 17:58:14;;;;;;;3.58;2.53;;;;;;;;;;10358724;28;20076;-65
2021/05/21 18:08:30;;;;;;;2.78;2.10;;;;;;;;;;10349326;28;20048;-66
2021/05/21 18:41:41;;;;;;;2.85;2.05;;;;;;;;;;10324804;28;20389;-66
2021/05/21 19:02:02;;;;;;;3.92;3.15;;;;;;;;;;10230061;28;20077;-65
2021/05/21 19:07:20;;;;;;;3.83;2.83;;;;;;;;;;10328178;28;20080;-65
2021/05/21 19:12:24;;;;;;;3.85;2.90;;;;;;;;;;10357049;28;20075;-66
2021/05/21 19:17:25;;;;;;;5.65;3.00;;;;;;;;;;10356911;28;20080;-65
2021/05/21 19:22:24;;;;;;;3.03;2.30;;;;;;;;;;10356819;28;20102;-64
2021/05/21 19:27:23;;;;;;;3.22;2.10;;;;;;;;;;10356634;28;20051;-64
2021/05/21 19:32:25;;;;;;;3.28;2.28;;;;;;;;;;10354177;28;20079;-65
2021/05/21 19:37:59;;;;;;;3.78;1.88;;;;;;;;;;10356234;28;20079;-66
2021/05/21 19:43:15;;;;;;;7.63;2.10;;;;;;;;;;10356494;28;20524;-66
2021/05/21 20:14:45;;;;;;;1.55;1.45;;;;;;;;;;10363327;28;20369;-64
2021/05/21 20:19:43;;;;;;;3.13;2.03;;;;;;;;;;10350101;28;20066;-66
2021/05/21 20:24:41;;;;;;;3.25;1.83;;;;;;;;;;10363133;28;20044;-65
2021/05/21 20:29:55;;;;;;;7.28;2.85;;;;;;;;;;10363279;28;20048;-65
2021/05/21 20:56:34;;;;;;;2.95;1.80;;;;;;;;;;10379070;28;20078;-65
2021/05/21 21:01:39;;;;;;;4.05;2.03;;;;;;;;;;10345445;28;20047;-61
2021/05/21 21:06:49;;;;;;;8.10;2.07;;;;;;;;;;10382607;28;20071;-63
2021/05/21 21:11:53;;;;;;;2.55;1.52;;;;;;;;;;10382649;28;20519;-62
2021/05/21 21:17:00;;;;;;;2.67;2.03;;;;;;;;;;10375925;28;20086;-61
2021/05/21 21:22:07;;;;;;;3.53;1.55;;;;;;;;;;10380065;28;20511;-61
2021/05/21 21:27:42;;;;;;;2.17;1.75;;;;;;;;;;10376419;28;20071;-62
2021/05/21 21:54:22;;;;;;;1.70;1.60;;;;;;;;;;10295450;28;20094;-61
2021/05/21 21:59:22;;;;;;;2.10;1.90;;;;;;;;;;10398844;28;20059;-61
2021/05/21 22:04:25;;;;;;;5.03;1.88;;;;;;;;;;10400251;28;20074;-62
2021/05/21 22:15:17;;;;;;;3.25;2.00;;;;;;;;;;10399348;28;20079;-62
2021/05/21 22:20:20;;;;;;;2.25;1.65;;;;;;;;;;10400433;28;20484;-62
2021/05/21 22:25:18;;;;;;;5.90;1.90;;;;;;;;;;10400112;28;20055;-61
2021/05/21 22:30:16;;;;;;;2.55;1.90;;;;;;;;;;10399805;28;20048;-62
2021/05/21 22:35:14;;;;;;;4.63;1.92;;;;;;;;;;10399189;28;20522;-62
2021/05/21 22:40:13;;;;;;;4.13;2.13;;;;;;;;;;10398942;28;20066;-61
2021/05/21 22:45:12;;;;;;;2.83;2.20;;;;;;;;;;10392510;28;20050;-63
2021/05/21 22:50:10;;;;;;;3.33;2.13;;;;;;;;;;10358056;28;20074;-61
2021/05/21 22:55:09;;;;;;;2.25;2.05;;;;;;;;;;10357184;28;20436;-61
2021/05/21 23:00:09;;;;;;;3.47;2.50;;;;;;;;;;10356986;28;20074;-61
2021/05/21 23:05:08;;;;;;;3.45;2.15;;;;;;;;;;10339245;28;20052;-61
2021/05/21 23:10:06;;;;;;;3.42;2.40;;;;;;;;;;10357593;28;20055;-62
2021/05/21 23:15:05;;;;;;;2.67;2.17;;;;;;;;;;10356640;28;20091;-64
2021/05/21 23:20:04;;;;;;;2.95;1.92;;;;;;;;;;10356828;28;20090;-62
2021/05/21 23:25:02;;;;;;;3.63;2.35;;;;;;;;;;10357348;28;20090;-62
2021/05/21 23:30:00;;;;;;;4.50;2.33;;;;;;;;;;10364827;28;20052;-62
2021/05/21 23:34:58;;;;;;;4.45;2.22;;;;;;;;;;10364643;28;20503;-61
2021/05/21 23:39:57;;;;;;;2.67;1.90;;;;;;;;;;10364629;28;20048;-62
2021/05/21 23:44:55;;;;;;;3.03;2.00;;;;;;;;;;10364658;28;20075;-61
2021/05/21 23:49:53;;;;;;;2.15;1.95;;;;;;;;;;10364827;28;20349;-62
2021/05/21 23:54:50;;;;;;;5.13;2.30;;;;;;;;;;10364640;28;20068;-61
2021/05/21 23:59:49;;;;;;;6.38;2.22;;;;;;;;;;10364149;28;20076;-62
